sensor_id;sensor_type;location;lat;lon;timestamp;temperature;humidity
27779;DHT22;30234;48.090;11.464;2022-10-19T00:00:35;13.00;99.90
27779;DHT22;30234;48.090;11.464;2022-10-19T00:04:36;12.90;99.90
27779;DHT22;30234;48.090;11.464;2022-10-19T00:08:36;13.00;99.90
27779;DHT22;30234;48.090;11.464;2022-10-19T00:12:37;13.10;99.90
27779;DHT22;30234;48.090;11.464;2022-10-19T00:16:39;13.20;99.90
27779;DHT22;30234;48.090;11.464;2022-10-19T00:20:40;14.10;99.90
27779;DHT22;30234;48.090;11.464;2022-10-19T00:24:41;13.20;99.90
27779;DHT22;30234;48.090;11.464;2022-10-19T00:28:42;13.20;99.90
27779;DHT22;30234;48.090;11.464;2022-10-19T00:32:43;13.20;99.90
27779;DHT22;30234;48.090;11.464;2022-10-19T00:36:44;13.20;99.90
27779;DHT22;30234;48.090;11.464;2022-10-19T00:40:46;13.10;99.90
27779;DHT22;30234;48.090;11.464;2022-10-19T00:48:49;13.40;99.90
27779;DHT22;30234;48.090;11.464;2022-10-19T00:52:53;13.10;99.90
27779;DHT22;30234;48.090;11.464;2022-10-19T00:56:55;13.00;99.90
27779;DHT22;30234;48.090;11.464;2022-10-19T01:00:59;13.00;99.90
27779;DHT22;30234;48.090;11.464;2022-10-19T01:05:01;13.00;99.90
27779;DHT22;30234;48.090;11.464;2022-10-19T01:09:02;13.10;99.90
27779;DHT22;30234;48.090;11.464;2022-10-19T01:13:22;13.80;99.90
27779;DHT22;30234;48.090;11.464;2022-10-19T01:18:18;13.20;99.90
27779;DHT22;30234;48.090;11.464;2022-10-19T01:22:38;13.30;99.90
27779;DHT22;30234;48.090;11.464;2022-10-19T01:31:28;13.30;99.90
27779;DHT22;30234;48.090;11.464;2022-10-19T01:40:19;13.00;99.90
27779;DHT22;30234;48.090;11.464;2022-10-19T01:45:23;13.00;99.90
27779;DHT22;30234;48.090;11.464;2022-10-19T01:49:14;12.90;99.90
27779;DHT22;30234;48.090;11.464;2022-10-19T01:53:17;13.00;99.90
27779;DHT22;30234;48.090;11.464;2022-10-19T01:57:27;13.00;99.90
27779;DHT22;30234;48.090;11.464;2022-10-19T02:01:34;13.10;99.90
27779;DHT22;30234;48.090;11.464;2022-10-19T02:05:37;13.20;99.90
27779;DHT22;30234;48.090;11.464;2022-10-19T02:09:39;13.20;99.90
27779;DHT22;30234;48.090;11.464;2022-10-19T02:13:40;13.30;99.90
27779;DHT22;30234;48.090;11.464;2022-10-19T02:17:47;13.30;99.90
27779;DHT22;30234;48.090;11.464;2022-10-19T02:21:50;13.80;99.90
27779;DHT22;30234;48.090;11.464;2022-10-19T02:25:51;14.10;99.90
27779;DHT22;30234;48.090;11.464;2022-10-19T02:29:53;13.50;99.90
27779;DHT22;30234;48.090;11.464;2022-10-19T02:33:54;13.50;99.90
27779;DHT22;30234;48.090;11.464;2022-10-19T02:37:59;13.60;99.90
27779;DHT22;30234;48.090;11.464;2022-10-19T02:46:22;14.60;99.90
27779;DHT22;30234;48.090;11.464;2022-10-19T02:50:25;13.80;99.90
27779;DHT22;30234;48.090;11.464;2022-10-19T02:54:27;13.80;99.90
27779;DHT22;30234;48.090;11.464;2022-10-19T02:58:28;13.80;99.90
27779;DHT22;30234;48.090;11.464;2022-10-19T03:02:29;13.80;99.90
27779;DHT22;30234;48.090;11.464;2022-10-19T03:06:29;13.80;99.90
27779;DHT22;30234;48.090;11.464;2022-10-19T03:10:30;13.90;99.90
27779;DHT22;30234;48.090;11.464;2022-10-19T03:14:31;14.00;99.90
27779;DHT22;30234;48.090;11.464;2022-10-19T03:18:32;13.90;99.90
27779;DHT22;30234;48.090;11.464;2022-10-19T03:22:33;13.80;99.90
27779;DHT22;30234;48.090;11.464;2022-10-19T03:26:33;13.80;99.90
27779;DHT22;30234;48.090;11.464;2022-10-19T03:30:34;13.70;99.90
27779;DHT22;30234;48.090;11.464;2022-10-19T03:34:35;13.80;99.90
27779;DHT22;30234;48.090;11.464;2022-10-19T03:38:36;13.80;99.90
27779;DHT22;30234;48.090;11.464;2022-10-19T03:42:36;13.80;99.90
27779;DHT22;30234;48.090;11.464;2022-10-19T03:46:38;13.80;99.90
27779;DHT22;30234;48.090;11.464;2022-10-19T03:50:39;13.80;99.90
27779;DHT22;30234;48.090;11.464;2022-10-19T03:54:40;13.80;99.90
27779;DHT22;30234;48.090;11.464;2022-10-19T03:58:42;13.70;99.90
27779;DHT22;30234;48.090;11.464;2022-10-19T04:02:44;14.50;99.90
27779;DHT22;30234;48.090;11.464;2022-10-19T04:06:47;13.70;99.90
27779;DHT22;30234;48.090;11.464;2022-10-19T04:10:48;13.70;99.90
27779;DHT22;30234;48.090;11.464;2022-10-19T04:14:49;13.60;99.90
27779;DHT22;30234;48.090;11.464;2022-10-19T04:18:50;13.60;99.90
27779;DHT22;30234;48.090;11.464;2022-10-19T04:22:51;13.60;99.90
27779;DHT22;30234;48.090;11.464;2022-10-19T04:26:54;13.50;99.90
27779;DHT22;30234;48.090;11.464;2022-10-19T04:30:55;13.60;99.90
27779;DHT22;30234;48.090;11.464;2022-10-19T04:34:56;14.40;99.90
27779;DHT22;30234;48.090;11.464;2022-10-19T04:38:57;13.50;99.90
27779;DHT22;30234;48.090;11.464;2022-10-19T04:42:58;13.60;99.90
27779;DHT22;30234;48.090;11.464;2022-10-19T04:46:58;13.50;99.90
27779;DHT22;30234;48.090;11.464;2022-10-19T04:50:59;13.60;99.90
27779;DHT22;30234;48.090;11.464;2022-10-19T04:55:00;13.60;99.90
27779;DHT22;30234;48.090;11.464;2022-10-19T04:59:01;13.60;99.90
27779;DHT22;30234;48.090;11.464;2022-10-19T05:03:02;13.60;99.90
27779;DHT22;30234;48.090;11.464;2022-10-19T05:07:02;13.60;99.90
27779;DHT22;30234;48.090;11.464;2022-10-19T05:11:09;13.70;99.90
27779;DHT22;30234;48.090;11.464;2022-10-19T05:15:12;13.60;99.90
27779;DHT22;30234;48.090;11.464;2022-10-19T05:19:13;13.70;99.90
27779;DHT22;30234;48.090;11.464;2022-10-19T05:23:14;14.30;99.90
27779;DHT22;30234;48.090;11.464;2022-10-19T05:27:14;14.80;99.90
27779;DHT22;30234;48.090;11.464;2022-10-19T05:31:18;13.80;99.90
27779;DHT22;30234;48.090;11.464;2022-10-19T05:35:19;13.80;99.90
27779;DHT22;30234;48.090;11.464;2022-10-19T05:39:21;13.70;99.90
27779;DHT22;30234;48.090;11.464;2022-10-19T05:43:22;13.80;99.90
27779;DHT22;30234;48.090;11.464;2022-10-19T05:47:23;13.80;99.90
27779;DHT22;30234;48.090;11.464;2022-10-19T05:51:25;13.80;99.90
27779;DHT22;30234;48.090;11.464;2022-10-19T05:55:26;14.70;99.90
27779;DHT22;30234;48.090;11.464;2022-10-19T05:59:27;13.90;99.90
27779;DHT22;30234;48.090;11.464;2022-10-19T06:03:28;13.90;99.90
27779;DHT22;30234;48.090;11.464;2022-10-19T06:07:29;14.10;99.90
27779;DHT22;30234;48.090;11.464;2022-10-19T06:11:33;14.10;99.90
27779;DHT22;30234;48.090;11.464;2022-10-19T06:15:35;14.20;99.90
27779;DHT22;30234;48.090;11.464;2022-10-19T06:19:39;14.60;99.90
27779;DHT22;30234;48.090;11.464;2022-10-19T06:23:40;14.30;99.90
27779;DHT22;30234;48.090;11.464;2022-10-19T06:27:41;14.30;99.90
27779;DHT22;30234;48.090;11.464;2022-10-19T06:31:42;15.00;99.90
27779;DHT22;30234;48.090;11.464;2022-10-19T06:35:43;14.70;99.90
27779;DHT22;30234;48.090;11.464;2022-10-19T06:39:43;14.60;99.90
27779;DHT22;30234;48.090;11.464;2022-10-19T06:43:49;14.60;99.90
27779;DHT22;30234;48.090;11.464;2022-10-19T06:47:51;14.70;99.90
27779;DHT22;30234;48.090;11.464;2022-10-19T06:51:51;14.80;99.90
27779;DHT22;30234;48.090;11.464;2022-10-19T06:55:52;14.90;99.90
27779;DHT22;30234;48.090;11.464;2022-10-19T06:59:53;15.10;99.90
27779;DHT22;30234;48.090;11.464;2022-10-19T07:03:54;15.20;99.90
27779;DHT22;30234;48.090;11.464;2022-10-19T07:07:56;15.30;99.90
27779;DHT22;30234;48.090;11.464;2022-10-19T07:11:57;15.30;99.90
27779;DHT22;30234;48.090;11.464;2022-10-19T07:16:07;15.40;99.90
27779;DHT22;30234;48.090;11.464;2022-10-19T07:20:10;15.60;99.90
27779;DHT22;30234;48.090;11.464;2022-10-19T07:24:11;15.70;99.90
27779;DHT22;30234;48.090;11.464;2022-10-19T07:28:12;15.90;99.90
27779;DHT22;30234;48.090;11.464;2022-10-19T07:32:13;16.50;99.90
27779;DHT22;30234;48.090;11.464;2022-10-19T07:36:13;16.00;99.90
27779;DHT22;30234;48.090;11.464;2022-10-19T07:40:14;17.00;99.90
27779;DHT22;30234;48.090;11.464;2022-10-19T07:44:15;16.10;99.90
27779;DHT22;30234;48.090;11.464;2022-10-19T07:48:16;16.20;99.90
27779;DHT22;30234;48.090;11.464;2022-10-19T07:52:16;16.20;99.90
27779;DHT22;30234;48.090;11.464;2022-10-19T07:56:23;16.40;99.90
27779;DHT22;30234;48.090;11.464;2022-10-19T08:00:24;16.10;99.90
27779;DHT22;30234;48.090;11.464;2022-10-19T08:04:25;17.20;99.90
27779;DHT22;30234;48.090;11.464;2022-10-19T08:08:27;16.40;99.90
27779;DHT22;30234;48.090;11.464;2022-10-19T08:12:28;16.50;99.90
27779;DHT22;30234;48.090;11.464;2022-10-19T08:16:37;16.60;99.90
27779;DHT22;30234;48.090;11.464;2022-10-19T08:20:40;16.70;99.90
27779;DHT22;30234;48.090;11.464;2022-10-19T08:24:41;16.80;99.90
27779;DHT22;30234;48.090;11.464;2022-10-19T08:28:42;16.80;99.90
27779;DHT22;30234;48.090;11.464;2022-10-19T08:32:42;16.90;99.90
27779;DHT22;30234;48.090;11.464;2022-10-19T08:36:43;16.90;99.90
27779;DHT22;30234;48.090;11.464;2022-10-19T08:40:45;17.10;99.90
27779;DHT22;30234;48.090;11.464;2022-10-19T08:49:02;17.60;99.90
27779;DHT22;30234;48.090;11.464;2022-10-19T08:53:07;18.00;99.90
27779;DHT22;30234;48.090;11.464;2022-10-19T08:57:44;18.10;99.90
27779;DHT22;30234;48.090;11.464;2022-10-19T09:02:06;18.20;99.90
27779;DHT22;30234;48.090;11.464;2022-10-19T09:10:52;18.50;99.90
27779;DHT22;30234;48.090;11.464;2022-10-19T09:15:02;18.60;99.90
27779;DHT22;30234;48.090;11.464;2022-10-19T09:19:14;18.20;99.90
27779;DHT22;30234;48.090;11.464;2022-10-19T09:28:31;17.90;99.90
27779;DHT22;30234;48.090;11.464;2022-10-19T09:32:46;17.70;99.90
27779;DHT22;30234;48.090;11.464;2022-10-19T09:36:53;17.50;99.90
27779;DHT22;30234;48.090;11.464;2022-10-19T09:40:57;17.30;99.90
27779;DHT22;30234;48.090;11.464;2022-10-19T09:45:58;17.10;99.90
27779;DHT22;30234;48.090;11.464;2022-10-19T09:49:40;17.10;99.90
27779;DHT22;30234;48.090;11.464;2022-10-19T09:53:51;17.20;99.90
27779;DHT22;30234;48.090;11.464;2022-10-19T10:02:16;17.50;99.90
27779;DHT22;30234;48.090;11.464;2022-10-19T10:06:20;17.50;99.90
27779;DHT22;30234;48.090;11.464;2022-10-19T10:10:30;17.50;99.90
27779;DHT22;30234;48.090;11.464;2022-10-19T10:14:38;17.60;99.90
27779;DHT22;30234;48.090;11.464;2022-10-19T10:19:01;17.60;99.90
27779;DHT22;30234;48.090;11.464;2022-10-19T10:23:04;17.50;99.90
27779;DHT22;30234;48.090;11.464;2022-10-19T10:27:05;17.40;99.90
27779;DHT22;30234;48.090;11.464;2022-10-19T10:31:31;17.30;99.90
27779;DHT22;30234;48.090;11.464;2022-10-19T10:35:33;17.40;99.90
27779;DHT22;30234;48.090;11.464;2022-10-19T10:39:42;17.50;99.90
27779;DHT22;30234;48.090;11.464;2022-10-19T10:43:55;17.60;99.90
27779;DHT22;30234;48.090;11.464;2022-10-19T10:48:09;17.80;99.90
27779;DHT22;30234;48.090;11.464;2022-10-19T10:52:17;17.80;99.90
27779;DHT22;30234;48.090;11.464;2022-10-19T10:56:27;17.70;99.90
27779;DHT22;30234;48.090;11.464;2022-10-19T11:00:29;18.40;99.90
27779;DHT22;30234;48.090;11.464;2022-10-19T11:04:35;17.40;99.90
27779;DHT22;30234;48.090;11.464;2022-10-19T11:08:59;17.20;99.90
27779;DHT22;30234;48.090;11.464;2022-10-19T11:17:25;16.90;99.90
27779;DHT22;30234;48.090;11.464;2022-10-19T11:21:39;16.60;99.90
27779;DHT22;30234;48.090;11.464;2022-10-19T11:30:20;17.10;99.90
27779;DHT22;30234;48.090;11.464;2022-10-19T11:34:45;17.20;99.90
27779;DHT22;30234;48.090;11.464;2022-10-19T12:02:09;18.30;99.90
27779;DHT22;30234;48.090;11.464;2022-10-19T12:06:45;18.60;99.90
27779;DHT22;30234;48.090;11.464;2022-10-19T12:15:47;18.30;99.90
27779;DHT22;30234;48.090;11.464;2022-10-19T12:19:53;18.40;99.90
27779;DHT22;30234;48.090;11.464;2022-10-19T12:23:57;18.50;99.90
27779;DHT22;30234;48.090;11.464;2022-10-19T12:28:02;18.80;99.90
27779;DHT22;30234;48.090;11.464;2022-10-19T12:32:04;18.80;99.90
27779;DHT22;30234;48.090;11.464;2022-10-19T12:40:37;19.20;99.90
27779;DHT22;30234;48.090;11.464;2022-10-19T12:45:15;19.20;99.90
27779;DHT22;30234;48.090;11.464;2022-10-19T12:49:44;18.80;99.90
27779;DHT22;30234;48.090;11.464;2022-10-19T12:53:49;19.30;99.90
27779;DHT22;30234;48.090;11.464;2022-10-19T12:58:18;19.50;99.90
27779;DHT22;30234;48.090;11.464;2022-10-19T13:02:33;19.70;99.90
27779;DHT22;30234;48.090;11.464;2022-10-19T13:06:40;19.50;99.90
27779;DHT22;30234;48.090;11.464;2022-10-19T13:11:05;19.10;99.90
27779;DHT22;30234;48.090;11.464;2022-10-19T13:19:33;19.10;99.90
27779;DHT22;30234;48.090;11.464;2022-10-19T13:23:38;18.70;99.90
27779;DHT22;30234;48.090;11.464;2022-10-19T13:27:42;19.10;99.90
27779;DHT22;30234;48.090;11.464;2022-10-19T13:31:43;18.10;99.90
27779;DHT22;30234;48.090;11.464;2022-10-19T13:35:44;18.00;99.90
27779;DHT22;30234;48.090;11.464;2022-10-19T13:39:46;17.80;99.90
27779;DHT22;30234;48.090;11.464;2022-10-19T13:48:20;17.90;99.90
27779;DHT22;30234;48.090;11.464;2022-10-19T14:10:18;18.80;99.90
27779;DHT22;30234;48.090;11.464;2022-10-19T14:14:23;18.90;99.90
27779;DHT22;30234;48.090;11.464;2022-10-19T14:18:30;18.50;99.90
27779;DHT22;30234;48.090;11.464;2022-10-19T14:22:34;18.40;99.90
27779;DHT22;30234;48.090;11.464;2022-10-19T14:26:35;17.60;99.90
27779;DHT22;30234;48.090;11.464;2022-10-19T14:30:36;17.70;99.90
27779;DHT22;30234;48.090;11.464;2022-10-19T14:34:44;18.10;99.90
27779;DHT22;30234;48.090;11.464;2022-10-19T14:38:50;18.50;99.90
27779;DHT22;30234;48.090;11.464;2022-10-19T14:42:54;18.90;99.90
27779;DHT22;30234;48.090;11.464;2022-10-19T14:46:59;19.30;99.90
27779;DHT22;30234;48.090;11.464;2022-10-19T14:51:02;19.80;99.90
27779;DHT22;30234;48.090;11.464;2022-10-19T14:55:15;19.90;99.90
27779;DHT22;30234;48.090;11.464;2022-10-19T14:59:48;19.90;99.90
27779;DHT22;30234;48.090;11.464;2022-10-19T15:03:50;19.50;99.90
27779;DHT22;30234;48.090;11.464;2022-10-19T15:07:52;19.10;99.90
27779;DHT22;30234;48.090;11.464;2022-10-19T15:11:55;18.80;99.90
27779;DHT22;30234;48.090;11.464;2022-10-19T15:16:25;18.30;99.90
27779;DHT22;30234;48.090;11.464;2022-10-19T15:21:00;17.80;99.90
27779;DHT22;30234;48.090;11.464;2022-10-19T15:29:08;17.00;99.90
27779;DHT22;30234;48.090;11.464;2022-10-19T15:33:19;16.40;99.90
27779;DHT22;30234;48.090;11.464;2022-10-19T15:37:22;16.00;99.90
27779;DHT22;30234;48.090;11.464;2022-10-19T15:41:35;15.80;99.90
27779;DHT22;30234;48.090;11.464;2022-10-19T15:45:37;15.40;99.90
27779;DHT22;30234;48.090;11.464;2022-10-19T15:53:41;15.00;99.90
27779;DHT22;30234;48.090;11.464;2022-10-19T15:57:42;14.70;99.90
27779;DHT22;30234;48.090;11.464;2022-10-19T16:01:44;14.60;99.90
27779;DHT22;30234;48.090;11.464;2022-10-19T16:05:47;14.50;99.90
27779;DHT22;30234;48.090;11.464;2022-10-19T16:09:48;14.40;99.90
27779;DHT22;30234;48.090;11.464;2022-10-19T16:13:49;14.30;99.90
27779;DHT22;30234;48.090;11.464;2022-10-19T16:17:52;13.90;99.90
27779;DHT22;30234;48.090;11.464;2022-10-19T16:21:54;14.40;99.90
27779;DHT22;30234;48.090;11.464;2022-10-19T16:25:55;13.40;99.90
27779;DHT22;30234;48.090;11.464;2022-10-19T16:29:56;13.80;99.90
27779;DHT22;30234;48.090;11.464;2022-10-19T16:33:57;13.00;99.90
27779;DHT22;30234;48.090;11.464;2022-10-19T16:37:58;13.00;99.90
27779;DHT22;30234;48.090;11.464;2022-10-19T16:41:58;13.00;99.90
27779;DHT22;30234;48.090;11.464;2022-10-19T16:45:59;13.00;99.90
27779;DHT22;30234;48.090;11.464;2022-10-19T16:50:03;13.00;99.90
27779;DHT22;30234;48.090;11.464;2022-10-19T16:54:06;13.20;99.90
27779;DHT22;30234;48.090;11.464;2022-10-19T16:58:08;13.40;99.90
27779;DHT22;30234;48.090;11.464;2022-10-19T17:02:10;13.70;99.90
27779;DHT22;30234;48.090;11.464;2022-10-19T17:06:11;13.90;99.90
27779;DHT22;30234;48.090;11.464;2022-10-19T17:10:12;14.10;99.90
27779;DHT22;30234;48.090;11.464;2022-10-19T17:14:14;14.20;99.90
27779;DHT22;30234;48.090;11.464;2022-10-19T17:18:15;14.30;99.90
27779;DHT22;30234;48.090;11.464;2022-10-19T17:22:16;14.60;99.90
27779;DHT22;30234;48.090;11.464;2022-10-19T17:26:16;14.50;99.90
27779;DHT22;30234;48.090;11.464;2022-10-19T17:30:18;14.50;99.90
27779;DHT22;30234;48.090;11.464;2022-10-19T17:34:19;14.50;99.90
27779;DHT22;30234;48.090;11.464;2022-10-19T17:38:19;15.20;99.90
27779;DHT22;30234;48.090;11.464;2022-10-19T17:42:20;14.40;99.90
27779;DHT22;30234;48.090;11.464;2022-10-19T17:46:27;14.30;99.90
27779;DHT22;30234;48.090;11.464;2022-10-19T17:50:29;14.20;99.90
27779;DHT22;30234;48.090;11.464;2022-10-19T17:54:30;14.10;99.90
27779;DHT22;30234;48.090;11.464;2022-10-19T17:58:32;14.80;99.90
27779;DHT22;30234;48.090;11.464;2022-10-19T18:02:34;15.00;99.90
27779;DHT22;30234;48.090;11.464;2022-10-19T18:06:36;13.90;99.90
27779;DHT22;30234;48.090;11.464;2022-10-19T18:10:37;13.80;99.90
27779;DHT22;30234;48.090;11.464;2022-10-19T18:14:38;13.70;99.90
27779;DHT22;30234;48.090;11.464;2022-10-19T18:18:41;13.50;99.90
27779;DHT22;30234;48.090;11.464;2022-10-19T18:22:42;13.70;99.90
27779;DHT22;30234;48.090;11.464;2022-10-19T18:26:43;13.40;99.90
27779;DHT22;30234;48.090;11.464;2022-10-19T18:30:44;13.30;99.90
27779;DHT22;30234;48.090;11.464;2022-10-19T18:34:44;13.20;99.90
27779;DHT22;30234;48.090;11.464;2022-10-19T18:38:53;13.10;99.90
27779;DHT22;30234;48.090;11.464;2022-10-19T18:42:55;13.00;99.90
27779;DHT22;30234;48.090;11.464;2022-10-19T18:46:56;14.40;99.90
27779;DHT22;30234;48.090;11.464;2022-10-19T18:50:57;13.80;99.90
27779;DHT22;30234;48.090;11.464;2022-10-19T18:55:03;12.70;99.90
27779;DHT22;30234;48.090;11.464;2022-10-19T18:59:04;12.60;99.90
27779;DHT22;30234;48.090;11.464;2022-10-19T19:03:05;13.70;99.90
27779;DHT22;30234;48.090;11.464;2022-10-19T19:07:06;12.40;99.90
27779;DHT22;30234;48.090;11.464;2022-10-19T19:11:14;12.30;99.90
27779;DHT22;30234;48.090;11.464;2022-10-19T19:15:19;12.00;99.90
27779;DHT22;30234;48.090;11.464;2022-10-19T19:19:20;11.90;99.90
27779;DHT22;30234;48.090;11.464;2022-10-19T19:23:23;11.50;99.90
27779;DHT22;30234;48.090;11.464;2022-10-19T19:27:24;11.50;99.90
27779;DHT22;30234;48.090;11.464;2022-10-19T19:31:25;11.50;99.90
27779;DHT22;30234;48.090;11.464;2022-10-19T19:35:26;11.20;99.90
27779;DHT22;30234;48.090;11.464;2022-10-19T19:39:27;11.50;99.90
27779;DHT22;30234;48.090;11.464;2022-10-19T19:43:30;12.30;99.90
27779;DHT22;30234;48.090;11.464;2022-10-19T19:47:31;10.70;99.90
27779;DHT22;30234;48.090;11.464;2022-10-19T19:51:32;11.00;99.90
27779;DHT22;30234;48.090;11.464;2022-10-19T19:55:34;10.60;99.90
27779;DHT22;30234;48.090;11.464;2022-10-19T19:59:35;10.50;99.90
27779;DHT22;30234;48.090;11.464;2022-10-19T20:03:35;10.50;99.90
27779;DHT22;30234;48.090;11.464;2022-10-19T20:07:36;10.60;99.90
27779;DHT22;30234;48.090;11.464;2022-10-19T20:11:37;10.60;99.90
27779;DHT22;30234;48.090;11.464;2022-10-19T20:15:39;11.50;99.90
27779;DHT22;30234;48.090;11.464;2022-10-19T20:19:40;10.90;99.90
27779;DHT22;30234;48.090;11.464;2022-10-19T20:23:45;10.90;99.90
27779;DHT22;30234;48.090;11.464;2022-10-19T20:27:46;10.80;99.90
27779;DHT22;30234;48.090;11.464;2022-10-19T20:31:47;10.80;99.90
27779;DHT22;30234;48.090;11.464;2022-10-19T20:35:47;10.70;99.90
27779;DHT22;30234;48.090;11.464;2022-10-19T20:39:48;10.80;99.90
27779;DHT22;30234;48.090;11.464;2022-10-19T20:43:49;10.70;99.90
27779;DHT22;30234;48.090;11.464;2022-10-19T20:47:51;11.10;99.90
27779;DHT22;30234;48.090;11.464;2022-10-19T20:51:52;10.70;99.90
27779;DHT22;30234;48.090;11.464;2022-10-19T20:55:53;10.70;99.90
27779;DHT22;30234;48.090;11.464;2022-10-19T20:59:54;10.70;99.90
27779;DHT22;30234;48.090;11.464;2022-10-19T21:03:57;11.90;99.90
27779;DHT22;30234;48.090;11.464;2022-10-19T21:08:00;10.50;99.90
27779;DHT22;30234;48.090;11.464;2022-10-19T21:12:00;10.50;99.90
27779;DHT22;30234;48.090;11.464;2022-10-19T21:16:13;10.50;99.90
27779;DHT22;30234;48.090;11.464;2022-10-19T21:20:15;10.30;99.90
27779;DHT22;30234;48.090;11.464;2022-10-19T21:24:18;10.30;99.90
27779;DHT22;30234;48.090;11.464;2022-10-19T21:28:20;10.30;99.90
27779;DHT22;30234;48.090;11.464;2022-10-19T21:32:21;11.10;99.90
27779;DHT22;30234;48.090;11.464;2022-10-19T21:36:23;10.30;99.90
27779;DHT22;30234;48.090;11.464;2022-10-19T21:40:26;10.20;99.90
27779;DHT22;30234;48.090;11.464;2022-10-19T21:44:27;9.90;99.90
27779;DHT22;30234;48.090;11.464;2022-10-19T21:48:29;11.10;99.90
27779;DHT22;30234;48.090;11.464;2022-10-19T21:52:30;9.70;99.90
27779;DHT22;30234;48.090;11.464;2022-10-19T21:56:31;9.60;99.90
27779;DHT22;30234;48.090;11.464;2022-10-19T22:00:33;10.40;99.90
27779;DHT22;30234;48.090;11.464;2022-10-19T22:04:33;10.30;99.90
27779;DHT22;30234;48.090;11.464;2022-10-19T22:08:34;9.80;99.90
27779;DHT22;30234;48.090;11.464;2022-10-19T22:12:35;11.00;99.90
27779;DHT22;30234;48.090;11.464;2022-10-19T22:16:36;9.90;99.90
27779;DHT22;30234;48.090;11.464;2022-10-19T22:20:38;9.90;99.90
27779;DHT22;30234;48.090;11.464;2022-10-19T22:24:39;9.80;99.90
27779;DHT22;30234;48.090;11.464;2022-10-19T22:28:40;9.70;99.90
27779;DHT22;30234;48.090;11.464;2022-10-19T22:32:41;9.60;99.90
27779;DHT22;30234;48.090;11.464;2022-10-19T22:36:43;10.50;99.90
27779;DHT22;30234;48.090;11.464;2022-10-19T22:40:44;9.80;99.90
27779;DHT22;30234;48.090;11.464;2022-10-19T22:44:45;9.90;99.90
27779;DHT22;30234;48.090;11.464;2022-10-19T22:48:46;10.90;99.90
27779;DHT22;30234;48.090;11.464;2022-10-19T22:52:46;9.80;99.90
27779;DHT22;30234;48.090;11.464;2022-10-19T22:56:47;9.80;99.90
27779;DHT22;30234;48.090;11.464;2022-10-19T23:01:06;10.90;99.90
27779;DHT22;30234;48.090;11.464;2022-10-19T23:05:08;9.80;99.90
27779;DHT22;30234;48.090;11.464;2022-10-19T23:09:09;9.80;99.90
27779;DHT22;30234;48.090;11.464;2022-10-19T23:13:10;9.70;99.90
27779;DHT22;30234;48.090;11.464;2022-10-19T23:17:11;9.70;99.90
27779;DHT22;30234;48.090;11.464;2022-10-19T23:21:12;9.90;99.90
27779;DHT22;30234;48.090;11.464;2022-10-19T23:25:13;10.00;99.90
27779;DHT22;30234;48.090;11.464;2022-10-19T23:29:14;10.20;99.90
27779;DHT22;30234;48.090;11.464;2022-10-19T23:33:15;10.40;99.90
27779;DHT22;30234;48.090;11.464;2022-10-19T23:37:16;10.50;99.90
27779;DHT22;30234;48.090;11.464;2022-10-19T23:41:18;10.50;99.90
27779;DHT22;30234;48.090;11.464;2022-10-19T23:45:19;10.70;99.90
27779;DHT22;30234;48.090;11.464;2022-10-19T23:49:20;10.70;99.90
27779;DHT22;30234;48.090;11.464;2022-10-19T23:53:21;10.60;99.90
27779;DHT22;30234;48.090;11.464;2022-10-19T23:57:22;11.30;99.90
